sensor_id;sensor_type;location;lat;lon;timestamp;P1;durP1;ratioP1;P2;durP2;ratioP2
52318;SDS011;38258;51.148;14.068;2022-10-17T00:01:48;14.23;;;8.10;;
52318;SDS011;38258;51.148;14.068;2022-10-17T00:04:15;14.13;;;7.47;;
52318;SDS011;38258;51.148;14.068;2022-10-17T00:06:42;15.38;;;8.02;;
52318;SDS011;38258;51.148;14.068;2022-10-17T00:09:09;15.38;;;8.20;;
52318;SDS011;38258;51.148;14.068;2022-10-17T00:11:37;15.65;;;7.80;;
52318;SDS011;38258;51.148;14.068;2022-10-17T00:14:04;16.65;;;8.02;;
52318;SDS011;38258;51.148;14.068;2022-10-17T00:16:32;17.10;;;8.43;;
52318;SDS011;38258;51.148;14.068;2022-10-17T00:19:01;17.70;;;9.30;;
52318;SDS011;38258;51.148;14.068;2022-10-17T00:21:28;17.92;;;9.55;;
52318;SDS011;38258;51.148;14.068;2022-10-17T00:23:56;16.88;;;7.18;;
52318;SDS011;38258;51.148;14.068;2022-10-17T00:26:23;18.33;;;9.10;;
52318;SDS011;38258;51.148;14.068;2022-10-17T00:28:51;18.02;;;8.82;;
52318;SDS011;38258;51.148;14.068;2022-10-17T00:31:19;17.17;;;8.57;;
52318;SDS011;38258;51.148;14.068;2022-10-17T00:33:48;19.13;;;8.98;;
52318;SDS011;38258;51.148;14.068;2022-10-17T00:36:16;15.80;;;8.45;;
52318;SDS011;38258;51.148;14.068;2022-10-17T00:38:45;17.80;;;8.70;;
52318;SDS011;38258;51.148;14.068;2022-10-17T00:41:14;17.58;;;8.60;;
52318;SDS011;38258;51.148;14.068;2022-10-17T00:43:52;17.15;;;9.45;;
52318;SDS011;38258;51.148;14.068;2022-10-17T00:46:23;17.75;;;9.55;;
52318;SDS011;38258;51.148;14.068;2022-10-17T00:48:52;16.83;;;8.77;;
52318;SDS011;38258;51.148;14.068;2022-10-17T00:51:22;17.83;;;9.45;;
52318;SDS011;38258;51.148;14.068;2022-10-17T00:53:54;22.00;;;10.05;;
52318;SDS011;38258;51.148;14.068;2022-10-17T00:56:22;17.13;;;8.98;;
52318;SDS011;38258;51.148;14.068;2022-10-17T00:58:49;18.02;;;9.25;;
52318;SDS011;38258;51.148;14.068;2022-10-17T01:01:17;17.90;;;9.30;;
52318;SDS011;38258;51.148;14.068;2022-10-17T01:03:44;20.55;;;9.48;;
52318;SDS011;38258;51.148;14.068;2022-10-17T01:06:11;20.77;;;9.73;;
52318;SDS011;38258;51.148;14.068;2022-10-17T01:08:37;21.15;;;10.38;;
52318;SDS011;38258;51.148;14.068;2022-10-17T01:11:07;18.27;;;9.85;;
52318;SDS011;38258;51.148;14.068;2022-10-17T01:13:47;19.85;;;10.38;;
52318;SDS011;38258;51.148;14.068;2022-10-17T01:16:20;20.27;;;9.70;;
52318;SDS011;38258;51.148;14.068;2022-10-17T01:18:59;20.17;;;9.70;;
52318;SDS011;38258;51.148;14.068;2022-10-17T01:21:37;18.02;;;9.23;;
52318;SDS011;38258;51.148;14.068;2022-10-17T01:24:36;17.92;;;9.25;;
52318;SDS011;38258;51.148;14.068;2022-10-17T01:33:30;17.92;;;8.73;;
52318;SDS011;38258;51.148;14.068;2022-10-17T01:36:05;20.88;;;10.38;;
52318;SDS011;38258;51.148;14.068;2022-10-17T01:38:39;20.70;;;10.32;;
52318;SDS011;38258;51.148;14.068;2022-10-17T01:41:13;22.00;;;11.00;;
52318;SDS011;38258;51.148;14.068;2022-10-17T01:43:52;20.35;;;9.70;;
52318;SDS011;38258;51.148;14.068;2022-10-17T01:46:27;21.85;;;11.05;;
52318;SDS011;38258;51.148;14.068;2022-10-17T01:48:57;21.35;;;10.18;;
52318;SDS011;38258;51.148;14.068;2022-10-17T01:51:27;24.27;;;11.43;;
52318;SDS011;38258;51.148;14.068;2022-10-17T01:54:01;25.98;;;11.63;;
52318;SDS011;38258;51.148;14.068;2022-10-17T01:59:02;21.73;;;10.48;;
52318;SDS011;38258;51.148;14.068;2022-10-17T02:01:33;22.60;;;11.15;;
52318;SDS011;38258;51.148;14.068;2022-10-17T02:04:03;23.88;;;10.65;;
52318;SDS011;38258;51.148;14.068;2022-10-17T02:06:33;22.42;;;10.95;;
52318;SDS011;38258;51.148;14.068;2022-10-17T02:09:13;24.08;;;11.18;;
52318;SDS011;38258;51.148;14.068;2022-10-17T02:11:42;20.77;;;10.77;;
52318;SDS011;38258;51.148;14.068;2022-10-17T02:14:18;24.02;;;11.20;;
52318;SDS011;38258;51.148;14.068;2022-10-17T02:16:57;24.35;;;11.48;;
52318;SDS011;38258;51.148;14.068;2022-10-17T02:19:34;22.50;;;12.30;;
52318;SDS011;38258;51.148;14.068;2022-10-17T02:22:15;26.50;;;12.48;;
52318;SDS011;38258;51.148;14.068;2022-10-17T02:24:49;28.95;;;12.60;;
52318;SDS011;38258;51.148;14.068;2022-10-17T02:27:23;27.65;;;13.05;;
52318;SDS011;38258;51.148;14.068;2022-10-17T02:29:59;30.10;;;13.68;;
52318;SDS011;38258;51.148;14.068;2022-10-17T02:32:35;28.15;;;13.15;;
52318;SDS011;38258;51.148;14.068;2022-10-17T02:35:09;28.05;;;13.43;;
52318;SDS011;38258;51.148;14.068;2022-10-17T02:37:41;32.45;;;14.75;;
52318;SDS011;38258;51.148;14.068;2022-10-17T02:40:12;30.30;;;13.57;;
52318;SDS011;38258;51.148;14.068;2022-10-17T02:42:43;32.75;;;14.23;;
52318;SDS011;38258;51.148;14.068;2022-10-17T02:45:11;29.60;;;13.85;;
52318;SDS011;38258;51.148;14.068;2022-10-17T02:47:42;28.20;;;13.93;;
52318;SDS011;38258;51.148;14.068;2022-10-17T02:50:16;29.35;;;14.85;;
52318;SDS011;38258;51.148;14.068;2022-10-17T02:52:47;24.73;;;11.57;;
52318;SDS011;38258;51.148;14.068;2022-10-17T02:55:22;29.30;;;13.52;;
52318;SDS011;38258;51.148;14.068;2022-10-17T02:57:53;30.90;;;14.50;;
52318;SDS011;38258;51.148;14.068;2022-10-17T03:00:24;33.28;;;14.80;;
52318;SDS011;38258;51.148;14.068;2022-10-17T03:02:56;31.98;;;13.65;;
52318;SDS011;38258;51.148;14.068;2022-10-17T03:05:24;28.92;;;14.30;;
52318;SDS011;38258;51.148;14.068;2022-10-17T03:07:52;28.85;;;13.20;;
52318;SDS011;38258;51.148;14.068;2022-10-17T03:10:20;29.30;;;14.13;;
52318;SDS011;38258;51.148;14.068;2022-10-17T03:12:47;28.40;;;14.40;;
52318;SDS011;38258;51.148;14.068;2022-10-17T03:15:15;30.20;;;13.52;;
52318;SDS011;38258;51.148;14.068;2022-10-17T03:17:42;32.20;;;14.50;;
52318;SDS011;38258;51.148;14.068;2022-10-17T03:20:11;25.80;;;13.05;;
52318;SDS011;38258;51.148;14.068;2022-10-17T03:22:38;25.92;;;11.57;;
52318;SDS011;38258;51.148;14.068;2022-10-17T03:25:06;26.63;;;13.73;;
52318;SDS011;38258;51.148;14.068;2022-10-17T03:27:34;25.15;;;13.05;;
52318;SDS011;38258;51.148;14.068;2022-10-17T03:30:01;26.70;;;13.73;;
52318;SDS011;38258;51.148;14.068;2022-10-17T03:32:31;27.45;;;12.13;;
52318;SDS011;38258;51.148;14.068;2022-10-17T03:34:58;29.50;;;13.90;;
52318;SDS011;38258;51.148;14.068;2022-10-17T03:37:27;25.80;;;12.73;;
52318;SDS011;38258;51.148;14.068;2022-10-17T03:39:54;23.90;;;12.38;;
52318;SDS011;38258;51.148;14.068;2022-10-17T03:42:21;27.25;;;13.15;;
52318;SDS011;38258;51.148;14.068;2022-10-17T03:44:48;28.63;;;13.63;;
52318;SDS011;38258;51.148;14.068;2022-10-17T03:47:15;31.25;;;14.50;;
52318;SDS011;38258;51.148;14.068;2022-10-17T03:49:43;28.30;;;13.80;;
52318;SDS011;38258;51.148;14.068;2022-10-17T03:52:10;26.83;;;13.23;;
52318;SDS011;38258;51.148;14.068;2022-10-17T03:54:39;29.65;;;14.15;;
52318;SDS011;38258;51.148;14.068;2022-10-17T03:57:06;30.45;;;13.90;;
52318;SDS011;38258;51.148;14.068;2022-10-17T03:59:34;29.42;;;14.30;;
52318;SDS011;38258;51.148;14.068;2022-10-17T04:02:06;25.27;;;13.25;;
52318;SDS011;38258;51.148;14.068;2022-10-17T04:04:34;29.90;;;14.68;;
52318;SDS011;38258;51.148;14.068;2022-10-17T04:07:01;28.27;;;14.13;;
52318;SDS011;38258;51.148;14.068;2022-10-17T04:09:29;29.10;;;13.45;;
52318;SDS011;38258;51.148;14.068;2022-10-17T04:12:05;30.95;;;14.45;;
52318;SDS011;38258;51.148;14.068;2022-10-17T04:14:35;32.65;;;15.20;;
52318;SDS011;38258;51.148;14.068;2022-10-17T04:17:02;29.13;;;13.63;;
52318;SDS011;38258;51.148;14.068;2022-10-17T04:19:33;28.60;;;14.20;;
52318;SDS011;38258;51.148;14.068;2022-10-17T04:22:00;27.73;;;14.25;;
52318;SDS011;38258;51.148;14.068;2022-10-17T04:24:30;27.73;;;14.85;;
52318;SDS011;38258;51.148;14.068;2022-10-17T04:27:08;29.02;;;14.10;;
52318;SDS011;38258;51.148;14.068;2022-10-17T04:29:39;32.05;;;14.07;;
52318;SDS011;38258;51.148;14.068;2022-10-17T04:32:14;25.30;;;12.50;;
52318;SDS011;38258;51.148;14.068;2022-10-17T04:34:47;30.98;;;14.02;;
52318;SDS011;38258;51.148;14.068;2022-10-17T04:37:14;30.08;;;14.27;;
52318;SDS011;38258;51.148;14.068;2022-10-17T04:39:43;28.48;;;14.75;;
52318;SDS011;38258;51.148;14.068;2022-10-17T04:42:12;31.17;;;15.18;;
52318;SDS011;38258;51.148;14.068;2022-10-17T04:44:39;25.52;;;12.05;;
52318;SDS011;38258;51.148;14.068;2022-10-17T04:47:07;33.22;;;15.95;;
52318;SDS011;38258;51.148;14.068;2022-10-17T04:49:34;30.00;;;14.65;;
52318;SDS011;38258;51.148;14.068;2022-10-17T04:52:07;30.77;;;15.68;;
52318;SDS011;38258;51.148;14.068;2022-10-17T04:54:38;28.02;;;14.23;;
52318;SDS011;38258;51.148;14.068;2022-10-17T04:57:07;31.98;;;15.35;;
52318;SDS011;38258;51.148;14.068;2022-10-17T04:59:36;29.83;;;15.80;;
52318;SDS011;38258;51.148;14.068;2022-10-17T05:02:13;32.88;;;15.50;;
52318;SDS011;38258;51.148;14.068;2022-10-17T05:04:41;33.00;;;16.50;;
52318;SDS011;38258;51.148;14.068;2022-10-17T05:07:10;31.25;;;15.05;;
52318;SDS011;38258;51.148;14.068;2022-10-17T05:10:06;30.73;;;15.35;;
52318;SDS011;38258;51.148;14.068;2022-10-17T05:12:34;33.85;;;15.82;;
52318;SDS011;38258;51.148;14.068;2022-10-17T05:15:05;31.70;;;16.88;;
52318;SDS011;38258;51.148;14.068;2022-10-17T05:17:33;36.15;;;16.52;;
52318;SDS011;38258;51.148;14.068;2022-10-17T05:20:00;29.17;;;13.93;;
52318;SDS011;38258;51.148;14.068;2022-10-17T05:22:29;32.42;;;16.17;;
52318;SDS011;38258;51.148;14.068;2022-10-17T05:24:56;32.03;;;15.82;;
52318;SDS011;38258;51.148;14.068;2022-10-17T05:27:23;37.33;;;17.88;;
52318;SDS011;38258;51.148;14.068;2022-10-17T05:29:50;34.88;;;17.40;;
52318;SDS011;38258;51.148;14.068;2022-10-17T05:32:25;32.88;;;14.75;;
52318;SDS011;38258;51.148;14.068;2022-10-17T05:34:52;31.95;;;16.73;;
52318;SDS011;38258;51.148;14.068;2022-10-17T05:37:21;38.15;;;16.63;;
52318;SDS011;38258;51.148;14.068;2022-10-17T05:39:50;38.83;;;18.80;;
52318;SDS011;38258;51.148;14.068;2022-10-17T05:42:18;31.17;;;15.68;;
52318;SDS011;38258;51.148;14.068;2022-10-17T05:44:46;38.60;;;18.08;;
52318;SDS011;38258;51.148;14.068;2022-10-17T05:47:15;37.53;;;18.02;;
52318;SDS011;38258;51.148;14.068;2022-10-17T05:49:44;36.30;;;18.08;;
52318;SDS011;38258;51.148;14.068;2022-10-17T05:52:12;39.20;;;20.00;;
52318;SDS011;38258;51.148;14.068;2022-10-17T05:54:52;31.58;;;14.35;;
52318;SDS011;38258;51.148;14.068;2022-10-17T05:57:20;42.05;;;18.83;;
52318;SDS011;38258;51.148;14.068;2022-10-17T05:59:49;31.15;;;15.23;;
52318;SDS011;38258;51.148;14.068;2022-10-17T06:02:18;33.53;;;15.23;;
52318;SDS011;38258;51.148;14.068;2022-10-17T06:04:47;38.70;;;18.15;;
52318;SDS011;38258;51.148;14.068;2022-10-17T06:07:16;35.38;;;17.10;;
52318;SDS011;38258;51.148;14.068;2022-10-17T06:09:43;29.40;;;14.63;;
52318;SDS011;38258;51.148;14.068;2022-10-17T06:12:10;31.75;;;15.48;;
52318;SDS011;38258;51.148;14.068;2022-10-17T06:14:37;35.95;;;17.58;;
52318;SDS011;38258;51.148;14.068;2022-10-17T06:17:05;36.67;;;17.48;;
52318;SDS011;38258;51.148;14.068;2022-10-17T06:19:32;34.75;;;17.45;;
52318;SDS011;38258;51.148;14.068;2022-10-17T06:22:02;32.03;;;15.57;;
52318;SDS011;38258;51.148;14.068;2022-10-17T06:24:30;32.35;;;16.15;;
52318;SDS011;38258;51.148;14.068;2022-10-17T06:27:01;30.23;;;15.68;;
52318;SDS011;38258;51.148;14.068;2022-10-17T06:29:28;27.13;;;13.68;;
52318;SDS011;38258;51.148;14.068;2022-10-17T06:31:55;34.88;;;16.33;;
52318;SDS011;38258;51.148;14.068;2022-10-17T06:34:23;38.28;;;18.27;;
52318;SDS011;38258;51.148;14.068;2022-10-17T06:36:49;30.67;;;15.38;;
52318;SDS011;38258;51.148;14.068;2022-10-17T06:39:19;30.45;;;14.45;;
52318;SDS011;38258;51.148;14.068;2022-10-17T06:42:09;34.97;;;16.40;;
52318;SDS011;38258;51.148;14.068;2022-10-17T06:45:06;27.58;;;15.15;;
52318;SDS011;38258;51.148;14.068;2022-10-17T06:48:04;25.70;;;14.40;;
52318;SDS011;38258;51.148;14.068;2022-10-17T06:50:52;28.77;;;14.35;;
52318;SDS011;38258;51.148;14.068;2022-10-17T06:53:22;33.58;;;16.50;;
52318;SDS011;38258;51.148;14.068;2022-10-17T06:56:09;24.90;;;12.82;;
52318;SDS011;38258;51.148;14.068;2022-10-17T06:58:54;32.60;;;15.77;;
52318;SDS011;38258;51.148;14.068;2022-10-17T07:01:24;24.20;;;13.43;;
52318;SDS011;38258;51.148;14.068;2022-10-17T07:03:55;34.28;;;16.73;;
52318;SDS011;38258;51.148;14.068;2022-10-17T07:06:22;33.63;;;15.75;;
52318;SDS011;38258;51.148;14.068;2022-10-17T07:08:50;30.25;;;15.85;;
52318;SDS011;38258;51.148;14.068;2022-10-17T07:11:21;26.55;;;13.63;;
52318;SDS011;38258;51.148;14.068;2022-10-17T07:13:51;25.27;;;12.75;;
52318;SDS011;38258;51.148;14.068;2022-10-17T07:16:19;30.58;;;15.70;;
52318;SDS011;38258;51.148;14.068;2022-10-17T07:18:53;31.30;;;14.50;;
52318;SDS011;38258;51.148;14.068;2022-10-17T07:21:20;25.58;;;14.35;;
52318;SDS011;38258;51.148;14.068;2022-10-17T07:23:47;29.50;;;15.13;;
52318;SDS011;38258;51.148;14.068;2022-10-17T07:26:15;28.92;;;13.98;;
52318;SDS011;38258;51.148;14.068;2022-10-17T07:28:49;21.67;;;12.43;;
52318;SDS011;38258;51.148;14.068;2022-10-17T07:31:30;26.08;;;12.88;;
52318;SDS011;38258;51.148;14.068;2022-10-17T07:33:58;22.77;;;12.32;;
52318;SDS011;38258;51.148;14.068;2022-10-17T07:36:26;26.92;;;13.88;;
52318;SDS011;38258;51.148;14.068;2022-10-17T07:38:54;22.73;;;11.40;;
52318;SDS011;38258;51.148;14.068;2022-10-17T07:41:23;24.50;;;12.40;;
52318;SDS011;38258;51.148;14.068;2022-10-17T07:43:51;28.75;;;14.50;;
52318;SDS011;38258;51.148;14.068;2022-10-17T07:46:22;23.17;;;11.63;;
52318;SDS011;38258;51.148;14.068;2022-10-17T07:48:50;24.90;;;12.65;;
52318;SDS011;38258;51.148;14.068;2022-10-17T07:51:19;19.80;;;11.68;;
52318;SDS011;38258;51.148;14.068;2022-10-17T07:53:46;27.48;;;15.15;;
52318;SDS011;38258;51.148;14.068;2022-10-17T07:56:13;23.85;;;12.77;;
52318;SDS011;38258;51.148;14.068;2022-10-17T07:58:40;24.45;;;13.52;;
52318;SDS011;38258;51.148;14.068;2022-10-17T08:01:09;20.15;;;11.30;;
52318;SDS011;38258;51.148;14.068;2022-10-17T08:03:39;21.52;;;12.00;;
52318;SDS011;38258;51.148;14.068;2022-10-17T08:06:06;23.92;;;13.45;;
52318;SDS011;38258;51.148;14.068;2022-10-17T08:08:33;23.67;;;12.60;;
52318;SDS011;38258;51.148;14.068;2022-10-17T08:11:00;21.08;;;12.10;;
52318;SDS011;38258;51.148;14.068;2022-10-17T08:13:28;21.30;;;10.82;;
52318;SDS011;38258;51.148;14.068;2022-10-17T08:15:57;25.08;;;13.65;;
52318;SDS011;38258;51.148;14.068;2022-10-17T08:18:26;22.73;;;12.07;;
52318;SDS011;38258;51.148;14.068;2022-10-17T08:20:53;18.92;;;10.00;;
52318;SDS011;38258;51.148;14.068;2022-10-17T08:23:24;26.58;;;13.23;;
52318;SDS011;38258;51.148;14.068;2022-10-17T08:25:51;21.55;;;11.85;;
52318;SDS011;38258;51.148;14.068;2022-10-17T08:28:18;18.63;;;12.15;;
52318;SDS011;38258;51.148;14.068;2022-10-17T08:30:45;21.80;;;11.35;;
52318;SDS011;38258;51.148;14.068;2022-10-17T08:33:12;19.42;;;10.48;;
52318;SDS011;38258;51.148;14.068;2022-10-17T08:35:40;21.58;;;11.90;;
52318;SDS011;38258;51.148;14.068;2022-10-17T08:38:07;19.75;;;12.13;;
52318;SDS011;38258;51.148;14.068;2022-10-17T08:40:34;25.00;;;11.68;;
52318;SDS011;38258;51.148;14.068;2022-10-17T08:43:14;23.50;;;11.90;;
52318;SDS011;38258;51.148;14.068;2022-10-17T08:45:52;21.65;;;11.82;;
52318;SDS011;38258;51.148;14.068;2022-10-17T08:48:25;20.48;;;12.00;;
52318;SDS011;38258;51.148;14.068;2022-10-17T08:50:56;21.95;;;12.07;;
52318;SDS011;38258;51.148;14.068;2022-10-17T08:53:28;21.73;;;11.55;;
52318;SDS011;38258;51.148;14.068;2022-10-17T08:55:59;22.92;;;12.38;;
52318;SDS011;38258;51.148;14.068;2022-10-17T09:01:02;13.43;;;7.75;;
52318;SDS011;38258;51.148;14.068;2022-10-17T09:03:41;18.05;;;10.10;;
52318;SDS011;38258;51.148;14.068;2022-10-17T09:06:20;17.17;;;9.50;;
52318;SDS011;38258;51.148;14.068;2022-10-17T09:08:58;21.33;;;11.27;;
52318;SDS011;38258;51.148;14.068;2022-10-17T09:11:44;17.52;;;10.43;;
52318;SDS011;38258;51.148;14.068;2022-10-17T09:14:27;18.58;;;9.63;;
52318;SDS011;38258;51.148;14.068;2022-10-17T09:17:07;21.13;;;11.25;;
52318;SDS011;38258;51.148;14.068;2022-10-17T09:19:44;17.60;;;9.82;;
52318;SDS011;38258;51.148;14.068;2022-10-17T09:22:24;15.63;;;10.10;;
52318;SDS011;38258;51.148;14.068;2022-10-17T09:27:25;18.42;;;9.65;;
52318;SDS011;38258;51.148;14.068;2022-10-17T09:30:01;18.55;;;10.88;;
52318;SDS011;38258;51.148;14.068;2022-10-17T09:32:42;19.07;;;11.07;;
52318;SDS011;38258;51.148;14.068;2022-10-17T09:35:12;17.20;;;9.63;;
52318;SDS011;38258;51.148;14.068;2022-10-17T09:37:41;17.00;;;9.60;;
52318;SDS011;38258;51.148;14.068;2022-10-17T09:40:20;18.17;;;9.18;;
52318;SDS011;38258;51.148;14.068;2022-10-17T09:42:50;20.13;;;10.75;;
52318;SDS011;38258;51.148;14.068;2022-10-17T09:45:18;21.45;;;11.25;;
52318;SDS011;38258;51.148;14.068;2022-10-17T09:47:53;18.52;;;9.45;;
52318;SDS011;38258;51.148;14.068;2022-10-17T09:50:27;17.38;;;9.43;;
52318;SDS011;38258;51.148;14.068;2022-10-17T09:52:58;16.88;;;10.68;;
52318;SDS011;38258;51.148;14.068;2022-10-17T09:55:30;16.05;;;9.20;;
52318;SDS011;38258;51.148;14.068;2022-10-17T09:58:03;18.58;;;10.32;;
52318;SDS011;38258;51.148;14.068;2022-10-17T10:00:33;18.48;;;10.20;;
52318;SDS011;38258;51.148;14.068;2022-10-17T10:03:09;16.23;;;9.90;;
52318;SDS011;38258;51.148;14.068;2022-10-17T10:05:41;20.83;;;11.55;;
52318;SDS011;38258;51.148;14.068;2022-10-17T10:08:24;14.88;;;8.52;;
52318;SDS011;38258;51.148;14.068;2022-10-17T10:10:56;16.27;;;9.20;;
52318;SDS011;38258;51.148;14.068;2022-10-17T10:13:25;20.00;;;10.30;;
52318;SDS011;38258;51.148;14.068;2022-10-17T10:15:52;16.85;;;9.93;;
52318;SDS011;38258;51.148;14.068;2022-10-17T10:18:30;18.67;;;10.38;;
52318;SDS011;38258;51.148;14.068;2022-10-17T10:21:06;17.90;;;10.55;;
52318;SDS011;38258;51.148;14.068;2022-10-17T10:23:37;17.55;;;10.23;;
52318;SDS011;38258;51.148;14.068;2022-10-17T10:26:11;16.60;;;10.52;;
52318;SDS011;38258;51.148;14.068;2022-10-17T10:28:50;17.15;;;9.82;;
52318;SDS011;38258;51.148;14.068;2022-10-17T10:31:26;17.38;;;9.75;;
52318;SDS011;38258;51.148;14.068;2022-10-17T10:33:55;15.43;;;9.23;;
52318;SDS011;38258;51.148;14.068;2022-10-17T10:36:24;20.60;;;11.40;;
52318;SDS011;38258;51.148;14.068;2022-10-17T10:38:53;18.05;;;10.52;;
52318;SDS011;38258;51.148;14.068;2022-10-17T10:41:22;19.10;;;10.55;;
52318;SDS011;38258;51.148;14.068;2022-10-17T10:43:52;16.88;;;9.35;;
52318;SDS011;38258;51.148;14.068;2022-10-17T10:46:22;18.45;;;10.68;;
52318;SDS011;38258;51.148;14.068;2022-10-17T10:48:52;18.88;;;11.05;;
52318;SDS011;38258;51.148;14.068;2022-10-17T10:51:25;17.65;;;10.02;;
52318;SDS011;38258;51.148;14.068;2022-10-17T10:53:58;18.17;;;10.82;;
52318;SDS011;38258;51.148;14.068;2022-10-17T10:56:30;16.95;;;10.35;;
52318;SDS011;38258;51.148;14.068;2022-10-17T10:59:01;19.20;;;11.10;;
52318;SDS011;38258;51.148;14.068;2022-10-17T11:01:33;17.90;;;10.90;;
52318;SDS011;38258;51.148;14.068;2022-10-17T11:04:16;19.13;;;11.32;;
52318;SDS011;38258;51.148;14.068;2022-10-17T11:06:49;17.98;;;10.98;;
52318;SDS011;38258;51.148;14.068;2022-10-17T11:09:27;16.05;;;9.80;;
52318;SDS011;38258;51.148;14.068;2022-10-17T11:12:01;16.75;;;10.60;;
52318;SDS011;38258;51.148;14.068;2022-10-17T11:14:37;17.65;;;10.50;;
52318;SDS011;38258;51.148;14.068;2022-10-17T11:17:14;17.63;;;10.93;;
52318;SDS011;38258;51.148;14.068;2022-10-17T11:19:48;16.67;;;10.75;;
52318;SDS011;38258;51.148;14.068;2022-10-17T11:22:22;16.75;;;10.35;;
52318;SDS011;38258;51.148;14.068;2022-10-17T11:24:55;17.25;;;10.48;;
52318;SDS011;38258;51.148;14.068;2022-10-17T11:27:26;19.25;;;10.38;;
52318;SDS011;38258;51.148;14.068;2022-10-17T11:29:55;17.50;;;11.55;;
52318;SDS011;38258;51.148;14.068;2022-10-17T11:32:23;17.40;;;10.05;;
52318;SDS011;38258;51.148;14.068;2022-10-17T11:34:57;15.25;;;9.70;;
52318;SDS011;38258;51.148;14.068;2022-10-17T11:37:30;19.23;;;10.93;;
52318;SDS011;38258;51.148;14.068;2022-10-17T11:40:04;18.08;;;11.25;;
52318;SDS011;38258;51.148;14.068;2022-10-17T11:42:41;16.75;;;10.55;;
52318;SDS011;38258;51.148;14.068;2022-10-17T11:45:12;16.83;;;10.43;;
52318;SDS011;38258;51.148;14.068;2022-10-17T11:47:43;19.10;;;10.07;;
52318;SDS011;38258;51.148;14.068;2022-10-17T11:50:18;17.00;;;10.18;;
52318;SDS011;38258;51.148;14.068;2022-10-17T11:52:50;20.10;;;11.02;;
52318;SDS011;38258;51.148;14.068;2022-10-17T11:55:22;17.90;;;10.25;;
52318;SDS011;38258;51.148;14.068;2022-10-17T11:57:55;18.88;;;10.80;;
52318;SDS011;38258;51.148;14.068;2022-10-17T12:00:36;17.48;;;10.98;;
52318;SDS011;38258;51.148;14.068;2022-10-17T12:03:16;20.08;;;10.38;;
52318;SDS011;38258;51.148;14.068;2022-10-17T12:05:54;19.73;;;10.45;;
52318;SDS011;38258;51.148;14.068;2022-10-17T12:08:27;18.75;;;11.00;;
52318;SDS011;38258;51.148;14.068;2022-10-17T12:11:05;18.15;;;10.93;;
52318;SDS011;38258;51.148;14.068;2022-10-17T12:13:50;16.67;;;10.13;;
52318;SDS011;38258;51.148;14.068;2022-10-17T12:19:23;15.43;;;9.68;;
52318;SDS011;38258;51.148;14.068;2022-10-17T12:24:56;17.92;;;10.43;;
52318;SDS011;38258;51.148;14.068;2022-10-17T12:27:37;17.90;;;10.77;;
52318;SDS011;38258;51.148;14.068;2022-10-17T12:30:14;19.80;;;11.20;;
52318;SDS011;38258;51.148;14.068;2022-10-17T12:33:04;19.15;;;11.18;;
52318;SDS011;38258;51.148;14.068;2022-10-17T12:35:43;18.48;;;10.32;;
52318;SDS011;38258;51.148;14.068;2022-10-17T12:40:56;18.17;;;9.50;;
52318;SDS011;38258;51.148;14.068;2022-10-17T12:52:14;17.75;;;11.13;;
52318;SDS011;38258;51.148;14.068;2022-10-17T12:54:44;17.27;;;10.38;;
52318;SDS011;38258;51.148;14.068;2022-10-17T12:57:14;15.60;;;10.13;;
52318;SDS011;38258;51.148;14.068;2022-10-17T12:59:47;16.00;;;10.30;;
52318;SDS011;38258;51.148;14.068;2022-10-17T13:02:16;17.58;;;9.75;;
52318;SDS011;38258;51.148;14.068;2022-10-17T13:04:46;14.63;;;8.25;;
52318;SDS011;38258;51.148;14.068;2022-10-17T13:07:15;16.42;;;10.23;;
52318;SDS011;38258;51.148;14.068;2022-10-17T13:09:45;14.80;;;10.30;;
52318;SDS011;38258;51.148;14.068;2022-10-17T13:12:13;12.70;;;8.40;;
52318;SDS011;38258;51.148;14.068;2022-10-17T13:14:47;13.93;;;9.30;;
52318;SDS011;38258;51.148;14.068;2022-10-17T13:17:22;16.35;;;9.70;;
52318;SDS011;38258;51.148;14.068;2022-10-17T13:19:50;17.17;;;10.40;;
52318;SDS011;38258;51.148;14.068;2022-10-17T13:22:18;15.52;;;9.35;;
52318;SDS011;38258;51.148;14.068;2022-10-17T13:24:47;13.63;;;8.63;;
52318;SDS011;38258;51.148;14.068;2022-10-17T13:27:22;14.75;;;8.60;;
52318;SDS011;38258;51.148;14.068;2022-10-17T13:29:53;16.23;;;10.40;;
52318;SDS011;38258;51.148;14.068;2022-10-17T13:32:22;15.68;;;9.02;;
52318;SDS011;38258;51.148;14.068;2022-10-17T13:37:39;16.95;;;9.82;;
52318;SDS011;38258;51.148;14.068;2022-10-17T13:40:14;15.75;;;10.50;;
52318;SDS011;38258;51.148;14.068;2022-10-17T13:42:42;15.20;;;9.70;;
52318;SDS011;38258;51.148;14.068;2022-10-17T13:45:16;16.85;;;10.05;;
52318;SDS011;38258;51.148;14.068;2022-10-17T13:47:47;15.25;;;10.18;;
52318;SDS011;38258;51.148;14.068;2022-10-17T13:50:26;16.58;;;10.10;;
52318;SDS011;38258;51.148;14.068;2022-10-17T13:53:07;15.52;;;10.10;;
52318;SDS011;38258;51.148;14.068;2022-10-17T13:55:53;15.73;;;9.13;;
52318;SDS011;38258;51.148;14.068;2022-10-17T13:58:23;17.38;;;10.10;;
52318;SDS011;38258;51.148;14.068;2022-10-17T14:00:53;16.70;;;10.07;;
52318;SDS011;38258;51.148;14.068;2022-10-17T14:03:21;17.92;;;10.77;;
52318;SDS011;38258;51.148;14.068;2022-10-17T14:06:02;14.90;;;8.88;;
52318;SDS011;38258;51.148;14.068;2022-10-17T14:08:37;18.05;;;11.18;;
52318;SDS011;38258;51.148;14.068;2022-10-17T14:11:12;17.95;;;10.35;;
52318;SDS011;38258;51.148;14.068;2022-10-17T14:13:50;19.42;;;11.23;;
52318;SDS011;38258;51.148;14.068;2022-10-17T14:16:20;19.27;;;11.20;;
52318;SDS011;38258;51.148;14.068;2022-10-17T14:18:49;17.27;;;11.07;;
52318;SDS011;38258;51.148;14.068;2022-10-17T14:21:18;20.40;;;10.88;;
52318;SDS011;38258;51.148;14.068;2022-10-17T14:23:47;20.13;;;10.88;;
52318;SDS011;38258;51.148;14.068;2022-10-17T14:26:16;18.13;;;10.90;;
52318;SDS011;38258;51.148;14.068;2022-10-17T14:28:46;19.35;;;11.82;;
52318;SDS011;38258;51.148;14.068;2022-10-17T14:31:23;17.40;;;10.45;;
52318;SDS011;38258;51.148;14.068;2022-10-17T14:33:55;18.77;;;11.48;;
52318;SDS011;38258;51.148;14.068;2022-10-17T14:36:33;19.52;;;12.65;;
52318;SDS011;38258;51.148;14.068;2022-10-17T14:39:03;19.00;;;12.13;;
52318;SDS011;38258;51.148;14.068;2022-10-17T14:41:32;21.65;;;11.65;;
52318;SDS011;38258;51.148;14.068;2022-10-17T14:44:01;19.90;;;12.13;;
52318;SDS011;38258;51.148;14.068;2022-10-17T14:46:34;25.27;;;14.90;;
52318;SDS011;38258;51.148;14.068;2022-10-17T14:49:05;18.67;;;11.15;;
52318;SDS011;38258;51.148;14.068;2022-10-17T14:51:33;20.88;;;11.25;;
52318;SDS011;38258;51.148;14.068;2022-10-17T14:54:02;19.73;;;11.27;;
52318;SDS011;38258;51.148;14.068;2022-10-17T14:56:42;19.42;;;11.68;;
52318;SDS011;38258;51.148;14.068;2022-10-17T14:59:15;18.58;;;10.88;;
52318;SDS011;38258;51.148;14.068;2022-10-17T15:01:48;20.13;;;11.45;;
52318;SDS011;38258;51.148;14.068;2022-10-17T15:04:15;24.73;;;13.55;;
52318;SDS011;38258;51.148;14.068;2022-10-17T15:06:42;22.88;;;12.88;;
52318;SDS011;38258;51.148;14.068;2022-10-17T15:09:09;39.17;;;22.45;;
52318;SDS011;38258;51.148;14.068;2022-10-17T15:11:37;21.63;;;11.70;;